Time;durP1;ratioP1;P1;durP2;ratioP2;P2;SDS_P1;SDS_P2;PMS_P1;PMS_P2;Temp;Humidity;BMP_temperature;BMP_pressure;BME280_temperature;BME280_humidity;BME280_pressure;Samples;Min_cycle;Max_cycle;Signal;HPM_P1;HPM_P2
2021/11/03 00:01:43;;;;;;;14.23;5.85;;;;;;;;;;4861333;29;20026;-89
2021/11/03 00:04:09;;;;;;;16.60;5.80;;;;;;;;;;4861750;29;20034;-88
2021/11/03 00:06:36;;;;;;;13.05;5.65;;;;;;;;;;4861441;29;20468;-88
2021/11/03 00:09:03;;;;;;;11.95;5.85;;;;;;;;;;4863392;29;20034;-88
2021/11/03 00:11:30;;;;;;;13.13;5.75;;;;;;;;;;4861697;29;20022;-88
2021/11/03 00:13:57;;;;;;;16.05;6.15;;;;;;;;;;4861384;29;20037;-88
2021/11/03 00:16:23;;;;;;;15.07;6.30;;;;;;;;;;4862399;29;20026;-89
2021/11/03 00:18:49;;;;;;;11.80;6.07;;;;;;;;;;4861162;29;20037;-88
2021/11/03 00:21:15;;;;;;;12.00;6.10;;;;;;;;;;4860901;29;20505;-90
2021/11/03 00:23:41;;;;;;;18.63;5.90;;;;;;;;;;4861004;29;20033;-89
2021/11/03 00:26:07;;;;;;;21.27;6.47;;;;;;;;;;4861225;29;20030;-88
2021/11/03 00:28:34;;;;;;;17.73;6.43;;;;;;;;;;4861118;29;20034;-90
2021/11/03 00:31:00;;;;;;;16.05;5.90;;;;;;;;;;4861159;29;20030;-88
2021/11/03 00:33:27;;;;;;;19.63;6.88;;;;;;;;;;4860700;29;20042;-90
2021/11/03 00:35:54;;;;;;;16.58;6.72;;;;;;;;;;4861043;29;20036;-90
2021/11/03 00:38:21;;;;;;;12.57;5.13;;;;;;;;;;4861063;29;20065;-90
2021/11/03 00:40:47;;;;;;;13.30;5.93;;;;;;;;;;4860653;29;20130;-90
2021/11/03 00:43:14;;;;;;;13.10;6.35;;;;;;;;;;4864662;29;20033;-91
2021/11/03 00:45:40;;;;;;;20.42;7.78;;;;;;;;;;4868671;29;20030;-90
2021/11/03 00:48:07;;;;;;;23.48;8.88;;;;;;;;;;4872064;29;20063;-89
2021/11/03 00:50:33;;;;;;;26.10;8.50;;;;;;;;;;4872464;29;20069;-88
2021/11/03 00:53:00;;;;;;;26.67;9.20;;;;;;;;;;4872137;29;20093;-91
2021/11/03 00:55:26;;;;;;;27.13;11.18;;;;;;;;;;4871807;29;20045;-89
2021/11/03 00:57:53;;;;;;;29.67;10.00;;;;;;;;;;4875150;29;20032;-89
2021/11/03 01:00:19;;;;;;;32.40;11.10;;;;;;;;;;4875619;29;20101;-89
2021/11/03 01:02:47;;;;;;;29.45;9.48;;;;;;;;;;4867464;29;20025;-90
2021/11/03 01:05:14;;;;;;;28.25;8.93;;;;;;;;;;4864604;29;20034;-90
2021/11/03 01:07:41;;;;;;;17.70;7.18;;;;;;;;;;4864568;29;20033;-90
2021/11/03 01:10:09;;;;;;;18.55;8.82;;;;;;;;;;4863936;29;20030;-90
2021/11/03 01:12:35;;;;;;;23.15;9.13;;;;;;;;;;4863988;29;20026;-90
2021/11/03 01:15:01;;;;;;;24.88;9.38;;;;;;;;;;4863855;29;20111;-89
2021/11/03 01:17:28;;;;;;;33.65;8.95;;;;;;;;;;4865244;29;20030;-91
2021/11/03 01:19:55;;;;;;;19.95;6.47;;;;;;;;;;4863854;29;20037;-89
2021/11/03 01:22:21;;;;;;;16.92;6.65;;;;;;;;;;4863681;29;20089;-89
2021/11/03 01:24:47;;;;;;;22.02;7.65;;;;;;;;;;4863719;29;20029;-89
2021/11/03 01:27:13;;;;;;;20.95;7.53;;;;;;;;;;4863698;29;20129;-89
2021/11/03 01:29:40;;;;;;;17.80;7.68;;;;;;;;;;4863697;29;20037;-88
2021/11/03 01:32:06;;;;;;;23.88;9.30;;;;;;;;;;4865150;29;20029;-90
2021/11/03 01:34:32;;;;;;;24.23;10.02;;;;;;;;;;4862587;29;20053;-89
2021/11/03 01:36:59;;;;;;;43.58;11.18;;;;;;;;;;4863437;29;20116;-90
2021/11/03 01:39:25;;;;;;;29.75;9.63;;;;;;;;;;4863358;29;20062;-89
2021/11/03 01:41:51;;;;;;;25.15;9.95;;;;;;;;;;4863348;29;20106;-89
2021/11/03 01:44:18;;;;;;;21.48;8.10;;;;;;;;;;4863367;29;20039;-90
2021/11/03 01:46:48;;;;;;;16.40;5.47;;;;;;;;;;4863224;29;20502;-88
2021/11/03 01:49:16;;;;;;;18.00;6.63;;;;;;;;;;4863315;29;20033;-90
2021/11/03 01:51:45;;;;;;;14.95;6.28;;;;;;;;;;4863245;29;20036;-91
2021/11/03 01:54:14;;;;;;;16.25;6.90;;;;;;;;;;4863169;29;20148;-89
2021/11/03 01:56:40;;;;;;;18.35;7.15;;;;;;;;;;4863110;29;20066;-90
2021/11/03 01:59:20;;;;;;;23.80;6.65;;;;;;;;;;4863159;29;20037;-91
2021/11/03 02:01:47;;;;;;;23.27;5.85;;;;;;;;;;4864243;29;20025;-90
2021/11/03 02:04:14;;;;;;;11.48;5.53;;;;;;;;;;4862949;29;20036;-90
2021/11/03 02:06:40;;;;;;;14.85;6.10;;;;;;;;;;4862906;29;20032;-91
2021/11/03 02:09:07;;;;;;;15.93;5.78;;;;;;;;;;4863931;29;20038;-91
2021/11/03 02:11:33;;;;;;;23.90;5.40;;;;;;;;;;4862921;29;20417;-90
2021/11/03 02:14:02;;;;;;;26.20;6.43;;;;;;;;;;4862811;29;20112;-89
2021/11/03 02:16:29;;;;;;;15.18;5.60;;;;;;;;;;4862814;29;20223;-90
2021/11/03 02:18:55;;;;;;;16.77;5.65;;;;;;;;;;4862788;29;20038;-90
2021/11/03 02:21:25;;;;;;;46.20;5.90;;;;;;;;;;4863000;29;20036;-89
2021/11/03 02:24:10;;;;;;;28.42;5.20;;;;;;;;;;4862792;29;20506;-90
2021/11/03 02:26:40;;;;;;;22.15;5.68;;;;;;;;;;4862725;29;20562;-91
2021/11/03 02:29:07;;;;;;;35.47;5.22;;;;;;;;;;4862727;29;20030;-90
2021/11/03 02:31:33;;;;;;;22.60;5.72;;;;;;;;;;4862735;29;20517;-88
2021/11/03 02:34:01;;;;;;;26.38;4.55;;;;;;;;;;4862414;29;20045;-91
2021/11/03 02:36:28;;;;;;;72.97;5.90;;;;;;;;;;4862455;29;20037;-90
2021/11/03 02:38:55;;;;;;;36.70;5.63;;;;;;;;;;4862827;29;20030;-90
2021/11/03 02:41:24;;;;;;;27.80;5.72;;;;;;;;;;4862252;29;20144;-91
2021/11/03 02:43:53;;;;;;;57.72;5.53;;;;;;;;;;4862474;29;20037;-89
2021/11/03 02:46:19;;;;;;;46.47;5.70;;;;;;;;;;4862475;29;20112;-91
2021/11/03 02:48:46;;;;;;;46.72;7.18;;;;;;;;;;4862332;29;20040;-91
2021/11/03 02:51:15;;;;;;;95.97;9.23;;;;;;;;;;4862388;29;20040;-89
2021/11/03 02:53:52;;;;;;;75.00;9.77;;;;;;;;;;4862359;29;20025;-89
2021/11/03 02:56:23;;;;;;;37.92;6.20;;;;;;;;;;4862387;29;20113;-90
2021/11/03 02:58:50;;;;;;;43.85;6.60;;;;;;;;;;4862436;29;20090;-90
2021/11/03 03:01:37;;;;;;;42.70;7.07;;;;;;;;;;4862327;29;20067;-90
2021/11/03 03:04:06;;;;;;;32.65;6.45;;;;;;;;;;4861813;29;20041;-91
2021/11/03 03:06:33;;;;;;;77.28;6.95;;;;;;;;;;4861917;29;20033;-90
2021/11/03 03:09:00;;;;;;;59.75;6.82;;;;;;;;;;4862178;29;20084;-91
2021/11/03 03:11:27;;;;;;;34.03;5.45;;;;;;;;;;4862171;29;20475;-90
2021/11/03 03:13:54;;;;;;;62.17;7.05;;;;;;;;;;4861672;29;20484;-90
2021/11/03 03:16:21;;;;;;;34.83;6.45;;;;;;;;;;4862056;29;20033;-91
2021/11/03 03:18:48;;;;;;;57.08;7.22;;;;;;;;;;4862755;29;20063;-91
2021/11/03 03:21:15;;;;;;;85.18;7.85;;;;;;;;;;4861296;29;20067;-91
2021/11/03 03:23:42;;;;;;;52.30;7.20;;;;;;;;;;4862000;29;20074;-90
2021/11/03 03:26:09;;;;;;;35.65;7.28;;;;;;;;;;4862803;29;20029;-88
2021/11/03 03:28:36;;;;;;;64.18;7.72;;;;;;;;;;4861902;29;20033;-91
2021/11/03 03:31:03;;;;;;;28.58;5.03;;;;;;;;;;4861610;29;20028;-89
2021/11/03 03:33:29;;;;;;;38.67;6.22;;;;;;;;;;4862338;29;20076;-91
2021/11/03 03:35:55;;;;;;;64.50;6.25;;;;;;;;;;4861734;29;20089;-91
2021/11/03 03:38:22;;;;;;;38.95;6.20;;;;;;;;;;4863045;29;20034;-89
2021/11/03 03:40:49;;;;;;;44.08;5.60;;;;;;;;;;4868256;29;20041;-89
2021/11/03 03:43:15;;;;;;;35.47;5.07;;;;;;;;;;4864462;29;20029;-90
2021/11/03 03:45:42;;;;;;;21.17;5.68;;;;;;;;;;4864456;29;20402;-90
2021/11/03 03:48:08;;;;;;;29.23;5.75;;;;;;;;;;4864379;29;20029;-89
2021/11/03 03:50:34;;;;;;;55.85;5.95;;;;;;;;;;4864401;29;20043;-90
2021/11/03 03:53:01;;;;;;;50.45;6.93;;;;;;;;;;4864518;29;20037;-90
2021/11/03 03:55:28;;;;;;;22.83;5.35;;;;;;;;;;4864344;29;20435;-91
2021/11/03 03:57:55;;;;;;;33.58;5.07;;;;;;;;;;4865102;29;20086;-91
2021/11/03 04:00:22;;;;;;;41.90;6.15;;;;;;;;;;4864193;29;20093;-91
2021/11/03 04:02:50;;;;;;;54.42;5.47;;;;;;;;;;4864286;29;20036;-85
2021/11/03 04:05:17;;;;;;;45.92;5.20;;;;;;;;;;4864280;29;20116;-91
2021/11/03 04:07:43;;;;;;;35.50;5.13;;;;;;;;;;4864101;29;20029;-89
2021/11/03 04:10:10;;;;;;;29.58;5.68;;;;;;;;;;4864134;29;20040;-91
2021/11/03 04:12:37;;;;;;;32.20;5.60;;;;;;;;;;4880528;29;20029;-90
2021/11/03 04:15:04;;;;;;;39.17;4.72;;;;;;;;;;4863951;29;20124;-90
2021/11/03 04:17:30;;;;;;;40.47;5.75;;;;;;;;;;4864071;29;20029;-90
2021/11/03 04:19:56;;;;;;;46.65;5.63;;;;;;;;;;4864182;29;20039;-91
2021/11/03 04:22:23;;;;;;;36.60;6.13;;;;;;;;;;4864147;29;20124;-90
2021/11/03 04:24:52;;;;;;;35.70;5.90;;;;;;;;;;4880458;29;20082;-90
2021/11/03 04:27:18;;;;;;;36.70;5.68;;;;;;;;;;4863928;29;20029;-92
2021/11/03 04:29:45;;;;;;;41.53;5.82;;;;;;;;;;4880637;29;20496;-91
2021/11/03 04:32:11;;;;;;;67.30;5.75;;;;;;;;;;4865321;29;20033;-90
2021/11/03 04:34:38;;;;;;;54.63;5.82;;;;;;;;;;4867846;29;20044;-91
2021/11/03 04:37:04;;;;;;;13.48;5.03;;;;;;;;;;4867690;29;20029;-86
2021/11/03 04:39:30;;;;;;;22.52;5.50;;;;;;;;;;4867649;29;20032;-88
2021/11/03 04:41:57;;;;;;;52.88;6.78;;;;;;;;;;4864600;29;20045;-91
2021/11/03 04:44:23;;;;;;;16.67;6.05;;;;;;;;;;4864795;29;20072;-87
2021/11/03 04:46:49;;;;;;;36.90;6.25;;;;;;;;;;4865897;29;20032;-90
2021/11/03 04:49:16;;;;;;;30.98;6.28;;;;;;;;;;4866028;29;20029;-89
2021/11/03 04:51:42;;;;;;;16.25;5.45;;;;;;;;;;4865185;29;20029;-89
2021/11/03 04:54:09;;;;;;;29.45;6.18;;;;;;;;;;4864502;29;20041;-91
2021/11/03 04:56:36;;;;;;;22.98;6.00;;;;;;;;;;4864150;29;20033;-90
2021/11/03 04:59:03;;;;;;;30.30;5.53;;;;;;;;;;4865299;29;20026;-89
2021/11/03 05:01:29;;;;;;;10.77;4.63;;;;;;;;;;4872332;29;20065;-86
2021/11/03 05:03:56;;;;;;;20.73;6.85;;;;;;;;;;4864187;29;20057;-87
2021/11/03 05:06:23;;;;;;;13.98;5.97;;;;;;;;;;4864941;29;20411;-87
2021/11/03 05:08:50;;;;;;;15.73;5.85;;;;;;;;;;4866937;29;20049;-88
2021/11/03 05:11:16;;;;;;;21.42;6.00;;;;;;;;;;4863852;29;20029;-90
2021/11/03 05:13:43;;;;;;;14.65;5.82;;;;;;;;;;4863967;29;20040;-88
2021/11/03 05:16:12;;;;;;;13.38;5.40;;;;;;;;;;4863970;29;20030;-88
2021/11/03 05:18:38;;;;;;;18.77;5.57;;;;;;;;;;4864046;29;20096;-91
2021/11/03 05:21:05;;;;;;;10.65;5.57;;;;;;;;;;4864007;29;20061;-91
2021/11/03 05:23:31;;;;;;;22.27;6.55;;;;;;;;;;4864817;29;20077;-90
2021/11/03 05:25:57;;;;;;;20.40;5.75;;;;;;;;;;4863950;29;20037;-89
2021/11/03 05:28:24;;;;;;;15.40;5.28;;;;;;;;;;4864377;29;20036;-88
2021/11/03 05:30:50;;;;;;;34.30;5.47;;;;;;;;;;4863927;29;20034;-89
2021/11/03 05:33:16;;;;;;;17.98;5.45;;;;;;;;;;4863687;29;20029;-89
2021/11/03 05:35:43;;;;;;;22.15;6.82;;;;;;;;;;4863621;29;20025;-90
2021/11/03 05:38:10;;;;;;;15.07;5.40;;;;;;;;;;4863645;29;20033;-94
2021/11/03 05:40:36;;;;;;;12.73;5.20;;;;;;;;;;4863781;29;20484;-95
2021/11/03 05:43:03;;;;;;;10.27;5.03;;;;;;;;;;4863700;29;20036;-90
2021/11/03 05:45:29;;;;;;;10.88;4.70;;;;;;;;;;4863938;29;20420;-90
2021/11/03 05:47:56;;;;;;;13.57;5.28;;;;;;;;;;4863703;29;20113;-94
2021/11/03 05:50:27;;;;;;;14.05;5.32;;;;;;;;;;4863640;29;20033;-90
2021/11/03 05:52:53;;;;;;;15.82;5.53;;;;;;;;;;4863674;29;20026;-90
2021/11/03 05:55:20;;;;;;;15.88;5.43;;;;;;;;;;4863268;29;20098;-94
2021/11/03 05:57:47;;;;;;;31.77;16.30;;;;;;;;;;4863344;29;20510;-95
2021/11/03 06:00:14;;;;;;;39.88;14.30;;;;;;;;;;4863681;29;20036;-91
2021/11/03 06:02:40;;;;;;;26.25;6.38;;;;;;;;;;4862387;29;20524;-85
2021/11/03 06:05:06;;;;;;;21.88;9.95;;;;;;;;;;4862403;29;20029;-86
2021/11/03 06:07:33;;;;;;;35.47;24.20;;;;;;;;;;4861775;29;20493;-85
2021/11/03 06:09:59;;;;;;;25.98;7.13;;;;;;;;;;4862422;29;20030;-85
2021/11/03 06:12:26;;;;;;;24.40;11.32;;;;;;;;;;4861283;29;20398;-84
2021/11/03 06:14:52;;;;;;;19.15;7.97;;;;;;;;;;4861984;29;20447;-84
2021/11/03 06:17:18;;;;;;;16.58;6.20;;;;;;;;;;4862100;29;20395;-85
2021/11/03 06:19:44;;;;;;;17.35;8.35;;;;;;;;;;4861861;29;20124;-85
2021/11/03 06:22:10;;;;;;;13.77;6.47;;;;;;;;;;4861729;29;20034;-84
2021/11/03 06:24:37;;;;;;;14.60;6.65;;;;;;;;;;4861004;29;20030;-87
2021/11/03 06:27:07;;;;;;;16.85;6.03;;;;;;;;;;4863280;29;20084;-86
2021/11/03 06:29:34;;;;;;;29.75;6.68;;;;;;;;;;4861986;29;20097;-87
2021/11/03 06:32:00;;;;;;;18.13;7.53;;;;;;;;;;4862104;29;20361;-86
2021/11/03 06:34:26;;;;;;;28.70;7.00;;;;;;;;;;4861772;29;20073;-88
2021/11/03 06:36:52;;;;;;;17.55;6.85;;;;;;;;;;4861647;29;20033;-86
2021/11/03 06:39:19;;;;;;;19.38;6.28;;;;;;;;;;4861626;29;20120;-87
2021/11/03 06:41:46;;;;;;;18.05;6.25;;;;;;;;;;4861246;29;20058;-85
2021/11/03 06:44:12;;;;;;;14.38;6.63;;;;;;;;;;4861791;29;20030;-86
2021/11/03 06:46:38;;;;;;;19.60;5.85;;;;;;;;;;4861881;29;20025;-85
2021/11/03 06:49:04;;;;;;;19.33;6.13;;;;;;;;;;4861844;29;20037;-86
2021/11/03 06:51:31;;;;;;;15.65;6.82;;;;;;;;;;4862963;29;20041;-87
2021/11/03 06:53:57;;;;;;;17.45;7.00;;;;;;;;;;4860998;29;20102;-85
2021/11/03 06:56:23;;;;;;;17.35;6.80;;;;;;;;;;4861163;29;20029;-86
2021/11/03 06:58:49;;;;;;;23.15;7.05;;;;;;;;;;4861510;29;20037;-86
2021/11/03 07:01:15;;;;;;;29.63;7.45;;;;;;;;;;4861522;29;20026;-86
2021/11/03 07:03:43;;;;;;;24.95;7.13;;;;;;;;;;4861248;29;20437;-86
2021/11/03 07:06:09;;;;;;;20.27;7.45;;;;;;;;;;4861595;29;20120;-86
2021/11/03 07:08:36;;;;;;;29.13;7.75;;;;;;;;;;4861456;29;20050;-85
2021/11/03 07:11:02;;;;;;;21.85;6.70;;;;;;;;;;4861399;29;20101;-87
2021/11/03 07:13:29;;;;;;;21.23;6.80;;;;;;;;;;4861191;29;20065;-86
2021/11/03 07:15:56;;;;;;;26.92;7.38;;;;;;;;;;4860778;29;20037;-85
2021/11/03 07:18:23;;;;;;;24.35;7.15;;;;;;;;;;4861170;29;20034;-85
2021/11/03 07:20:50;;;;;;;26.85;6.85;;;;;;;;;;4861028;29;20038;-86
2021/11/03 07:23:17;;;;;;;12.85;5.78;;;;;;;;;;4861135;29;20399;-85
2021/11/03 07:25:45;;;;;;;11.48;5.95;;;;;;;;;;4862311;29;20030;-86
2021/11/03 07:28:11;;;;;;;13.48;6.43;;;;;;;;;;4860963;29;20112;-84
2021/11/03 07:30:38;;;;;;;16.48;6.65;;;;;;;;;;4860981;29;20029;-84
2021/11/03 07:33:06;;;;;;;12.57;6.07;;;;;;;;;;4862275;29;20033;-87
2021/11/03 07:35:32;;;;;;;12.45;6.13;;;;;;;;;;4860966;29;20064;-87
2021/11/03 07:37:58;;;;;;;12.80;6.68;;;;;;;;;;4860703;29;20034;-85
2021/11/03 07:40:27;;;;;;;21.00;7.75;;;;;;;;;;4863643;29;20056;-85
2021/11/03 07:42:57;;;;;;;13.15;6.80;;;;;;;;;;4863923;29;20029;-85
2021/11/03 07:45:23;;;;;;;14.48;7.55;;;;;;;;;;4863569;29;20032;-86
2021/11/03 07:47:49;;;;;;;12.77;6.82;;;;;;;;;;4863495;29;20033;-85
2021/11/03 07:50:17;;;;;;;16.05;7.68;;;;;;;;;;4863676;29;20037;-86
2021/11/03 07:52:43;;;;;;;14.45;7.00;;;;;;;;;;4863670;29;20063;-86
2021/11/03 07:55:11;;;;;;;14.57;7.50;;;;;;;;;;4863508;29;20479;-85
2021/11/03 07:57:37;;;;;;;14.15;7.32;;;;;;;;;;4880139;29;20052;-85
2021/11/03 08:00:05;;;;;;;22.42;8.88;;;;;;;;;;4863637;29;20038;-85
2021/11/03 08:02:32;;;;;;;23.17;8.82;;;;;;;;;;4863376;29;20041;-85
2021/11/03 08:04:58;;;;;;;20.73;8.00;;;;;;;;;;4863447;29;20029;-85
2021/11/03 08:07:24;;;;;;;25.80;8.15;;;;;;;;;;4863364;29;20482;-85
2021/11/03 08:09:50;;;;;;;18.13;7.97;;;;;;;;;;4863090;29;20089;-85
2021/11/03 08:12:17;;;;;;;15.32;7.60;;;;;;;;;;4862995;29;20025;-85
2021/11/03 08:14:43;;;;;;;14.07;7.40;;;;;;;;;;4863076;29;20033;-84
2021/11/03 08:17:27;;;;;;;12.65;6.82;;;;;;;;;;4863229;29;20128;-84
2021/11/03 08:19:56;;;;;;;13.77;6.57;;;;;;;;;;4863129;29;20029;-83
2021/11/03 08:22:24;;;;;;;14.93;7.18;;;;;;;;;;4862862;29;20092;-84
2021/11/03 08:24:51;;;;;;;13.68;7.25;;;;;;;;;;4863164;29;20093;-85
2021/11/03 08:27:17;;;;;;;16.63;8.23;;;;;;;;;;4863039;29;20474;-85
2021/11/03 08:29:44;;;;;;;19.02;8.77;;;;;;;;;;4863117;29;20478;-82
2021/11/03 08:32:12;;;;;;;17.92;9.60;;;;;;;;;;4863115;29;20495;-82
2021/11/03 08:34:38;;;;;;;17.75;7.85;;;;;;;;;;4862859;29;20049;-84
2021/11/03 08:37:09;;;;;;;12.25;7.30;;;;;;;;;;4863105;29;20021;-84
2021/11/03 08:39:37;;;;;;;13.35;6.65;;;;;;;;;;4879305;29;20080;-83
2021/11/03 08:42:03;;;;;;;14.02;7.22;;;;;;;;;;4879068;29;20049;-82
2021/11/03 08:44:30;;;;;;;12.57;5.95;;;;;;;;;;4862694;29;20107;-82
2021/11/03 08:46:59;;;;;;;11.75;5.90;;;;;;;;;;4862975;29;20036;-84
2021/11/03 08:49:25;;;;;;;11.05;6.15;;;;;;;;;;4862911;29;20044;-84
2021/11/03 08:51:51;;;;;;;12.98;6.38;;;;;;;;;;4862864;29;20402;-84
2021/11/03 08:54:18;;;;;;;11.23;6.22;;;;;;;;;;4878936;29;20128;-82
2021/11/03 08:56:44;;;;;;;10.07;5.93;;;;;;;;;;4862426;29;20025;-82
2021/11/03 08:59:11;;;;;;;12.38;6.43;;;;;;;;;;4862596;29;20045;-84
2021/11/03 09:01:38;;;;;;;10.52;5.95;;;;;;;;;;4863141;29;20039;-83
2021/11/03 09:04:04;;;;;;;9.13;5.45;;;;;;;;;;4863368;29;20044;-82
2021/11/03 09:06:30;;;;;;;10.60;5.65;;;;;;;;;;4879381;29;20032;-83
2021/11/03 09:08:56;;;;;;;10.57;5.72;;;;;;;;;;4881224;29;20483;-83
2021/11/03 09:11:23;;;;;;;9.38;5.32;;;;;;;;;;4862521;29;20029;-83
2021/11/03 09:13:49;;;;;;;9.35;4.85;;;;;;;;;;4862391;29;20048;-83
2021/11/03 09:16:16;;;;;;;10.05;5.20;;;;;;;;;;4862300;29;20040;-82
2021/11/03 09:18:42;;;;;;;9.10;5.20;;;;;;;;;;4864590;29;20501;-82
2021/11/03 09:21:09;;;;;;;9.88;5.25;;;;;;;;;;4865822;29;20033;-82
2021/11/03 09:23:36;;;;;;;8.73;4.72;;;;;;;;;;4865616;29;20394;-82
2021/11/03 09:26:02;;;;;;;7.95;5.15;;;;;;;;;;4865709;29;20029;-83
2021/11/03 09:28:30;;;;;;;8.50;4.93;;;;;;;;;;4865581;29;20048;-82
2021/11/03 09:30:56;;;;;;;7.75;4.47;;;;;;;;;;4882109;29;20063;-82
2021/11/03 09:33:22;;;;;;;7.40;4.32;;;;;;;;;;4865403;29;20025;-82
2021/11/03 09:35:50;;;;;;;8.65;4.45;;;;;;;;;;4882121;29;20056;-82
2021/11/03 09:38:18;;;;;;;9.50;5.20;;;;;;;;;;4865326;29;20036;-82
2021/11/03 09:40:56;;;;;;;8.25;3.90;;;;;;;;;;4858016;29;20058;-82
2021/11/03 09:43:34;;;;;;;6.22;3.95;;;;;;;;;;4843976;29;20064;-83
2021/11/03 09:46:02;;;;;;;6.60;4.15;;;;;;;;;;4844056;29;20034;-82
2021/11/03 09:48:35;;;;;;;6.25;3.63;;;;;;;;;;4843730;29;20030;-83
2021/11/03 09:51:03;;;;;;;7.30;3.63;;;;;;;;;;4843719;29;20038;-82
2021/11/03 09:53:32;;;;;;;5.40;3.45;;;;;;;;;;4843603;29;20090;-83
2021/11/03 09:55:59;;;;;;;6.05;3.25;;;;;;;;;;4844961;29;20365;-83
2021/11/03 09:58:28;;;;;;;5.80;3.13;;;;;;;;;;4843409;29;20030;-83
2021/11/03 10:00:59;;;;;;;4.53;3.10;;;;;;;;;;4843495;29;20575;-83
2021/11/03 10:03:26;;;;;;;6.00;3.60;;;;;;;;;;4843723;29;20037;-83
2021/11/03 10:05:52;;;;;;;6.60;3.72;;;;;;;;;;4844729;29;20030;-83
2021/11/03 10:08:21;;;;;;;7.28;3.55;;;;;;;;;;4844531;29;20118;-83
2021/11/03 10:10:50;;;;;;;6.97;4.05;;;;;;;;;;4843548;29;20086;-83
2021/11/03 10:13:19;;;;;;;6.88;4.00;;;;;;;;;;4842505;29;20042;-83
2021/11/03 10:16:11;;;;;;;4.95;3.22;;;;;;;;;;4843215;29;20030;-83
2021/11/03 10:18:58;;;;;;;6.75;3.83;;;;;;;;;;4809364;29;20103;-83
2021/11/03 10:21:36;;;;;;;7.70;3.78;;;;;;;;;;4842452;29;20063;-83
2021/11/03 10:24:05;;;;;;;8.70;4.20;;;;;;;;;;4843454;29;20022;-82
2021/11/03 10:26:52;;;;;;;5.63;3.50;;;;;;;;;;4845182;29;20065;-82
2021/11/03 10:29:20;;;;;;;5.55;3.55;;;;;;;;;;4842421;29;20025;-82
2021/11/03 10:31:54;;;;;;;8.57;4.93;;;;;;;;;;4843184;29;20542;-82
2021/11/03 10:34:43;;;;;;;5.13;3.45;;;;;;;;;;4843214;29;20129;-82
2021/11/03 10:37:17;;;;;;;9.55;4.82;;;;;;;;;;4831517;29;20450;-83
2021/11/03 10:40:05;;;;;;;9.27;3.72;;;;;;;;;;4842910;29;20030;-83
2021/11/03 10:42:52;;;;;;;8.02;4.47;;;;;;;;;;4860490;29;20056;-82
2021/11/03 10:45:22;;;;;;;5.82;3.13;;;;;;;;;;4861507;29;20025;-82
2021/11/03 10:48:09;;;;;;;7.47;3.33;;;;;;;;;;4862497;29;20029;-82
2021/11/03 10:50:42;;;;;;;6.78;3.88;;;;;;;;;;4859001;29;20068;-82
2021/11/03 10:53:23;;;;;;;7.35;3.35;;;;;;;;;;4861143;29;20090;-82
2021/11/03 10:56:09;;;;;;;6.13;3.35;;;;;;;;;;4861008;29;20045;-83
2021/11/03 10:58:50;;;;;;;5.97;3.50;;;;;;;;;;4861006;29;20428;-82
2021/11/03 11:01:23;;;;;;;7.13;3.30;;;;;;;;;;4861096;29;20037;-82
2021/11/03 11:04:07;;;;;;;5.57;3.45;;;;;;;;;;4861085;29;20147;-83
2021/11/03 11:06:40;;;;;;;6.03;3.45;;;;;;;;;;4860860;29;20029;-82
2021/11/03 11:09:24;;;;;;;9.18;3.63;;;;;;;;;;4861182;29;20090;-83
2021/11/03 11:11:55;;;;;;;5.70;3.50;;;;;;;;;;4860805;29;20483;-83
2021/11/03 11:14:22;;;;;;;6.65;3.95;;;;;;;;;;4860738;29;20046;-83
2021/11/03 11:16:58;;;;;;;7.43;3.72;;;;;;;;;;4860762;29;20036;-82
2021/11/03 11:19:30;;;;;;;8.10;4.03;;;;;;;;;;4860625;29;20384;-82
2021/11/03 11:21:59;;;;;;;8.98;4.50;;;;;;;;;;4860864;29;20026;-81
2021/11/03 11:24:31;;;;;;;8.80;4.50;;;;;;;;;;4860538;29;20039;-82
2021/11/03 11:27:02;;;;;;;7.07;4.13;;;;;;;;;;4859728;29;20026;-82
2021/11/03 11:29:31;;;;;;;7.85;4.25;;;;;;;;;;4860322;29;20051;-81
2021/11/03 11:32:07;;;;;;;9.40;5.20;;;;;;;;;;4860519;29;20061;-84
2021/11/03 11:34:36;;;;;;;8.43;4.40;;;;;;;;;;4861491;29;20037;-83
2021/11/03 11:37:05;;;;;;;7.20;4.20;;;;;;;;;;4860518;29;20026;-83
2021/11/03 11:39:53;;;;;;;6.72;4.32;;;;;;;;;;4861587;29;20116;-83
2021/11/03 11:42:34;;;;;;;9.57;4.13;;;;;;;;;;4877005;29;20076;-82
2021/11/03 11:45:02;;;;;;;8.00;4.63;;;;;;;;;;4863408;29;20040;-82
2021/11/03 11:47:39;;;;;;;8.15;4.40;;;;;;;;;;4863179;29;20061;-83
2021/11/03 11:50:22;;;;;;;7.25;4.00;;;;;;;;;;4879985;29;20033;-83
2021/11/03 11:52:48;;;;;;;5.93;3.50;;;;;;;;;;4863431;29;20084;-83
2021/11/03 11:55:15;;;;;;;6.47;3.78;;;;;;;;;;4879973;29;20036;-83
2021/11/03 11:58:04;;;;;;;7.45;3.50;;;;;;;;;;4863059;29;20111;-83
2021/11/03 12:00:31;;;;;;;7.40;4.68;;;;;;;;;;4863103;29;20505;-83
2021/11/03 12:03:09;;;;;;;8.27;4.88;;;;;;;;;;4863409;29;20520;-83
2021/11/03 12:05:43;;;;;;;13.63;8.25;;;;;;;;;;4862810;29;20036;-83
2021/11/03 12:08:09;;;;;;;12.85;7.78;;;;;;;;;;4863089;29;20494;-82
2021/11/03 12:10:35;;;;;;;13.73;7.78;;;;;;;;;;4863093;29;20072;-83
2021/11/03 12:13:04;;;;;;;17.33;9.45;;;;;;;;;;4862937;29;20029;-83
2021/11/03 12:15:49;;;;;;;15.07;8.48;;;;;;;;;;4862767;29;20055;-83
2021/11/03 12:18:38;;;;;;;27.52;13.25;;;;;;;;;;4879552;29;20037;-83
2021/11/03 12:21:04;;;;;;;37.70;18.58;;;;;;;;;;4862882;29;20031;-83
2021/11/03 12:23:49;;;;;;;31.45;14.82;;;;;;;;;;4879444;29;20392;-83
2021/11/03 12:26:27;;;;;;;14.95;8.93;;;;;;;;;;4862652;29;20037;-83
2021/11/03 12:28:55;;;;;;;16.73;10.05;;;;;;;;;;4862941;29;20025;-82
2021/11/03 12:31:21;;;;;;;12.73;9.02;;;;;;;;;;4862680;29;20052;-83
2021/11/03 12:34:03;;;;;;;8.85;6.78;;;;;;;;;;4862628;29;20479;-83
2021/11/03 12:36:31;;;;;;;12.65;8.38;;;;;;;;;;4862416;29;20383;-81
2021/11/03 12:38:59;;;;;;;10.27;6.60;;;;;;;;;;4862697;29;20025;-83
2021/11/03 12:41:30;;;;;;;11.27;6.57;;;;;;;;;;4850573;29;20504;-83
2021/11/03 12:44:00;;;;;;;9.95;4.78;;;;;;;;;;4841435;29;20034;-79
2021/11/03 12:46:26;;;;;;;8.15;4.53;;;;;;;;;;4841049;29;20555;-80
2021/11/03 12:48:55;;;;;;;6.15;3.58;;;;;;;;;;4841193;29;20055;-81
2021/11/03 12:51:32;;;;;;;6.22;3.53;;;;;;;;;;4841916;29;20082;-81
2021/11/03 12:54:15;;;;;;;5.82;3.00;;;;;;;;;;4843426;29;20073;-81
2021/11/03 12:56:52;;;;;;;10.85;3.67;;;;;;;;;;4844604;29;20057;-81
2021/11/03 12:59:22;;;;;;;11.63;4.32;;;;;;;;;;4846078;29;20034;-79
2021/11/03 13:01:51;;;;;;;7.60;4.55;;;;;;;;;;4844858;29;20059;-79
2021/11/03 13:04:23;;;;;;;16.17;8.88;;;;;;;;;;4845093;29;20480;-81
2021/11/03 13:06:55;;;;;;;20.15;9.88;;;;;;;;;;4844304;29;20501;-82
2021/11/03 13:09:35;;;;;;;17.17;5.30;;;;;;;;;;4842230;29;20044;-80
2021/11/03 13:12:02;;;;;;;7.32;3.40;;;;;;;;;;4840869;29;20082;-81
2021/11/03 13:14:30;;;;;;;6.57;3.13;;;;;;;;;;4842793;29;20034;-80
2021/11/03 13:16:58;;;;;;;8.25;3.78;;;;;;;;;;4843856;29;20104;-80
2021/11/03 13:19:31;;;;;;;6.78;3.58;;;;;;;;;;4842842;29;20082;-81
2021/11/03 13:21:57;;;;;;;6.88;3.42;;;;;;;;;;4845362;29;20022;-80
2021/11/03 13:24:34;;;;;;;6.20;3.10;;;;;;;;;;4844114;29;20029;-80
2021/11/03 13:27:08;;;;;;;5.18;3.17;;;;;;;;;;4844147;29;20506;-82
2021/11/03 13:29:37;;;;;;;8.48;3.88;;;;;;;;;;4844081;29;20033;-80
2021/11/03 13:32:05;;;;;;;8.10;3.78;;;;;;;;;;4844260;29;20033;-81
2021/11/03 13:34:50;;;;;;;12.15;4.32;;;;;;;;;;4844996;29;20415;-81
2021/11/03 13:37:19;;;;;;;9.70;4.35;;;;;;;;;;4844061;29;20108;-83
2021/11/03 13:39:54;;;;;;;6.30;3.78;;;;;;;;;;4844109;29;20036;-82
2021/11/03 13:42:28;;;;;;;8.30;5.05;;;;;;;;;;4859607;29;20053;-83
2021/11/03 13:45:03;;;;;;;6.03;3.38;;;;;;;;;;4862268;29;20424;-83
2021/11/03 13:47:31;;;;;;;6.93;3.67;;;;;;;;;;4862160;29;20025;-81
2021/11/03 13:50:16;;;;;;;8.57;3.67;;;;;;;;;;4863495;29;20108;-81
2021/11/03 13:53:11;;;;;;;10.45;4.22;;;;;;;;;;4862278;29;20033;-80
2021/11/03 13:55:45;;;;;;;8.50;5.18;;;;;;;;;;4853654;29;20057;-83
2021/11/03 13:58:20;;;;;;;10.70;3.97;;;;;;;;;;4863146;29;20029;-82
2021/11/03 14:01:00;;;;;;;8.52;4.30;;;;;;;;;;4862197;29;20036;-83
2021/11/03 14:03:50;;;;;;;9.02;4.30;;;;;;;;;;4861852;29;20030;-83
2021/11/03 14:06:19;;;;;;;8.98;4.47;;;;;;;;;;4854938;29;20052;-83
2021/11/03 14:08:46;;;;;;;11.95;4.82;;;;;;;;;;4862893;29;20037;-82
2021/11/03 14:11:12;;;;;;;12.43;5.53;;;;;;;;;;4863005;29;20030;-82
2021/11/03 14:13:38;;;;;;;8.93;5.07;;;;;;;;;;4861976;29;20423;-82
2021/11/03 14:16:18;;;;;;;12.40;4.95;;;;;;;;;;4861792;29;20116;-82
2021/11/03 14:18:44;;;;;;;8.20;4.88;;;;;;;;;;4861884;29;20035;-82
2021/11/03 14:21:10;;;;;;;8.88;4.15;;;;;;;;;;4861773;29;20065;-83
2021/11/03 14:23:37;;;;;;;9.25;4.43;;;;;;;;;;4861637;29;20062;-81
2021/11/03 14:26:03;;;;;;;12.43;4.38;;;;;;;;;;4861583;29;20113;-80
2021/11/03 14:28:29;;;;;;;8.05;4.20;;;;;;;;;;4862494;29;20034;-79
2021/11/03 14:30:58;;;;;;;7.30;4.47;;;;;;;;;;4862715;29;20398;-82
2021/11/03 14:33:29;;;;;;;8.70;4.10;;;;;;;;;;4862685;29;20375;-82
2021/11/03 14:35:55;;;;;;;9.52;4.90;;;;;;;;;;4862317;29;20411;-81
2021/11/03 14:38:24;;;;;;;10.85;4.45;;;;;;;;;;4861037;29;20033;-82
2021/11/03 14:40:51;;;;;;;9.15;4.68;;;;;;;;;;4866827;29;20073;-80
2021/11/03 14:43:20;;;;;;;10.73;5.20;;;;;;;;;;4864637;29;20132;-81
2021/11/03 14:45:46;;;;;;;12.40;5.03;;;;;;;;;;4864450;29;20029;-80